Aviation Digital Data Service (ADDS)

Output produced by METARs form (0458 UTC 25 April 2014)
found at http://aviationweather.gov/adds/metars/
 
KPHL 242332Z 2500/2606 33008KT P6SM SCT250 
     FM250500 VRB03KT P6SM BKN250 
     FM251400 15008KT P6SM BKN250 
     FM252200 15010KT P6SM -SHRA BKN050 OVC100 
     FM260000 13008KT 4SM SHRA BR OVC020 
     FM260300 VRB05KT 2SM SHRA BR OVC010